Time;durP1;ratioP1;P1;durP2;ratioP2;P2;SDS_P1;SDS_P2;PMS_P1;PMS_P2;Temp;Humidity;BMP_temperature;BMP_pressure;BME280_temperature;BME280_humidity;BME280_pressure;Samples;Min_cycle;Max_cycle;Signal;HPM_P1;HPM_P2
2022/11/06 00:00:38;;;;;;;28.33;13.40;;;;;;;-141.28;100.00;49635.47;5117629;28;20207;-75
2022/11/06 00:03:07;;;;;;;21.57;13.33;;;;;;;-141.28;100.00;49596.22;5112905;28;20222;-81
2022/11/06 00:08:27;;;;;;;24.53;13.80;;;;;;;-141.28;100.00;49737.50;5113881;28;20594;-77
2022/11/06 00:10:56;;;;;;;23.07;12.90;;;;;;;-141.28;100.00;49659.00;5109591;28;20253;-78
2022/11/06 00:13:22;;;;;;;24.23;14.43;;;;;;;-141.28;100.00;49678.63;5105086;28;20199;-77
2022/11/06 00:15:49;;;;;;;21.17;12.77;;;;;;;-141.28;100.00;49649.19;5113625;28;20310;-78
2022/11/06 00:18:16;;;;;;;30.50;13.80;;;;;;;-141.28;100.00;49651.16;5113575;28;20195;-77
2022/11/06 00:20:43;;;;;;;22.33;12.80;;;;;;;-141.28;100.00;49633.50;5113673;28;20734;-76
2022/11/06 00:23:10;;;;;;;21.03;12.03;;;;;;;-141.28;100.00;49623.69;5115419;28;20223;-75
2022/11/06 00:25:40;;;;;;;21.40;13.27;;;;;;;-141.28;100.00;49639.38;5116165;28;20263;-76
2022/11/06 00:28:09;;;;;;;21.93;12.90;;;;;;;-141.28;100.00;49666.84;5113624;28;20221;-79
2022/11/06 00:30:37;;;;;;;24.60;13.03;;;;;;;-141.28;100.00;49651.16;5110799;28;20642;-78
2022/11/06 00:33:04;;;;;;;26.20;12.80;;;;;;;-141.28;100.00;49623.69;5113405;28;20309;-77
2022/11/06 00:35:31;;;;;;;26.03;12.67;;;;;;;-141.28;100.00;49627.59;5112904;28;20722;-75
2022/11/06 00:37:58;;;;;;;23.63;12.67;;;;;;;-141.28;100.00;49619.75;5116107;28;20255;-76
2022/11/06 00:40:25;;;;;;;22.40;13.90;;;;;;;-141.28;100.00;49609.94;5114905;28;20199;-77
2022/11/06 00:42:56;;;;;;;22.53;12.90;;;;;;;-141.28;100.00;49607.97;5117855;28;20210;-76
2022/11/06 00:45:27;;;;;;;25.40;13.43;;;;;;;-141.28;100.00;49600.13;5102899;28;20194;-78
2022/11/06 00:47:54;;;;;;;24.73;13.80;;;;;;;-141.28;100.00;49596.22;5114087;28;20267;-79
2022/11/06 00:50:24;;;;;;;22.47;13.07;;;;;;;-141.28;100.00;49609.94;5113654;28;20589;-78
2022/11/06 00:52:52;;;;;;;24.97;14.00;;;;;;;-141.28;100.00;49631.53;5113099;28;20203;-76
2022/11/06 00:55:19;;;;;;;22.40;13.10;;;;;;;-141.28;100.00;49600.13;5113415;28;20195;-76
2022/11/06 00:57:46;;;;;;;23.37;12.77;;;;;;;-141.28;100.00;49613.88;5113085;28;20230;-75
2022/11/06 01:00:16;;;;;;;25.63;14.50;;;;;;;-141.28;100.00;49617.78;5113130;28;20211;-79
2022/11/06 01:02:45;;;;;;;26.27;14.80;;;;;;;-141.28;100.00;49604.06;5110944;28;20252;-77
2022/11/06 01:05:12;;;;;;;26.60;14.03;;;;;;;-141.28;100.00;49609.94;5112756;28;20219;-76
2022/11/06 01:07:40;;;;;;;25.63;14.30;;;;;;;-141.28;100.00;49564.81;5112878;28;20305;-78
2022/11/06 01:10:09;;;;;;;28.30;15.67;;;;;;;-141.28;100.00;49580.50;5112818;28;20202;-78
2022/11/06 01:12:38;;;;;;;24.53;15.27;;;;;;;-141.28;100.00;49556.97;5112785;28;20210;-76
2022/11/06 01:15:06;;;;;;;27.33;15.77;;;;;;;-141.28;100.00;49537.34;5112510;28;20199;-80
2022/11/06 01:17:35;;;;;;;24.93;16.10;;;;;;;-141.28;100.00;49543.22;5112681;28;20207;-77
2022/11/06 01:20:04;;;;;;;26.93;15.70;;;;;;;-141.28;100.00;49541.25;5119312;28;20228;-75
2022/11/06 01:22:31;;;;;;;33.10;17.90;;;;;;;-141.28;100.00;49535.38;5122531;28;20207;-74
2022/11/06 01:24:58;;;;;;;36.90;19.07;;;;;;;-141.28;100.00;49523.59;5114737;28;20701;-76
2022/11/06 01:27:25;;;;;;;30.07;18.23;;;;;;;-141.28;100.00;49529.50;5112606;28;20592;-76
2022/11/06 01:29:52;;;;;;;29.13;17.60;;;;;;;-141.28;100.00;49509.88;5112548;28;20264;-79
2022/11/06 01:32:19;;;;;;;31.73;18.63;;;;;;;-141.28;100.00;49498.09;5112402;28;20199;-80
2022/11/06 01:34:46;;;;;;;30.17;16.50;;;;;;;-141.28;100.00;49519.69;5107077;28;20538;-81
2022/11/06 01:37:15;;;;;;;25.37;15.10;;;;;;;-141.28;100.00;49496.13;5109715;28;20211;-76
2022/11/06 01:39:42;;;;;;;29.70;17.00;;;;;;;-141.28;100.00;49488.28;5112342;28;20700;-78
2022/11/06 01:42:11;;;;;;;28.03;16.83;;;;;;;-141.28;100.00;49494.16;5114116;28;20194;-76
2022/11/06 01:45:04;;;;;;;27.50;16.27;;;;;;;-141.28;100.00;49545.19;5111999;28;20227;-80
2022/11/06 01:47:32;;;;;;;25.10;14.70;;;;;;;-141.28;100.00;49529.50;5112778;28;20225;-77
2022/11/06 01:50:05;;;;;;;26.00;14.83;;;;;;;-141.28;100.00;49574.63;5110871;28;20651;-76
2022/11/06 01:52:35;;;;;;;24.57;14.13;;;;;;;-141.28;100.00;49555.00;5101115;28;20276;-77
2022/11/06 01:55:09;;;;;;;24.67;13.67;;;;;;;-141.28;100.00;49572.66;5112683;28;20203;-78
2022/11/06 01:57:37;;;;;;;22.07;11.87;;;;;;;-141.28;100.00;49564.81;5113005;28;20589;-77
2022/11/06 02:00:06;;;;;;;22.63;11.30;;;;;;;-141.28;100.00;49572.66;5111993;28;20195;-77
2022/11/06 02:02:33;;;;;;;20.83;11.23;;;;;;;-141.28;100.00;49580.50;5112381;28;20205;-80
2022/11/06 02:05:00;;;;;;;26.90;11.00;;;;;;;-141.28;100.00;49578.56;5099606;28;20231;-80
2022/11/06 02:07:27;;;;;;;20.73;10.53;;;;;;;-141.28;100.00;49572.66;5109472;28;20203;-77
2022/11/06 02:09:56;;;;;;;21.17;11.13;;;;;;;-141.28;100.00;49588.34;5112166;28;20252;-76
2022/11/06 02:12:36;;;;;;;21.70;12.77;;;;;;;-141.28;100.00;49651.16;5111886;28;20292;-78
2022/11/06 02:15:11;;;;;;;21.97;10.07;;;;;;;-141.28;100.00;49659.00;5114829;28;20210;-76
2022/11/06 02:17:50;;;;;;;23.60;10.07;;;;;;;-141.28;100.00;49688.44;5115845;28;20256;-77
2022/11/06 02:20:26;;;;;;;18.00;9.87;;;;;;;-141.28;100.00;49692.38;5115689;28;20195;-77
2022/11/06 02:23:25;;;;;;;17.87;9.67;;;;;;;-141.28;100.00;49741.44;5102465;28;20211;-79
2022/11/06 02:26:11;;;;;;;19.57;8.90;;;;;;;-141.28;100.00;49853.28;5116391;28;20266;-81
2022/11/06 02:28:47;;;;;;;14.57;8.43;;;;;;;-141.28;100.00;49847.41;5116146;28;20670;-78
2022/11/06 02:31:21;;;;;;;18.37;8.30;;;;;;;-141.28;100.00;49816.00;5111947;28;20198;-76
2022/11/06 02:33:53;;;;;;;16.70;8.33;;;;;;;-141.28;100.00;49788.53;5095903;28;20208;-77
2022/11/06 02:36:27;;;;;;;18.30;9.00;;;;;;;-141.28;100.00;49798.34;5115242;28;20195;-76
2022/11/06 02:38:57;;;;;;;16.40;8.70;;;;;;;-141.28;100.00;49761.06;5115865;28;20207;-74
2022/11/06 02:41:29;;;;;;;15.33;8.43;;;;;;;-141.28;100.00;49808.16;5114720;28;20212;-74
2022/11/06 02:43:59;;;;;;;17.33;9.03;;;;;;;-141.28;100.00;49776.75;5115886;28;20249;-77
2022/11/06 02:46:31;;;;;;;18.60;9.40;;;;;;;-141.28;100.00;49796.38;5114818;28;20653;-77
2022/11/06 02:49:05;;;;;;;17.60;8.87;;;;;;;-141.28;100.00;49812.06;5115888;28;20207;-77
2022/11/06 02:51:36;;;;;;;16.90;8.07;;;;;;;-141.28;100.00;49808.16;5115030;28;20681;-77
2022/11/06 02:54:06;;;;;;;19.57;9.13;;;;;;;-141.28;100.00;49829.75;5115607;28;20626;-79
2022/11/06 02:56:37;;;;;;;14.30;8.90;;;;;;;-141.28;100.00;49792.44;5115202;28;20203;-79
2022/11/06 02:59:12;;;;;;;14.97;8.50;;;;;;;-141.28;100.00;49823.84;5116509;28;20521;-74
2022/11/06 03:01:42;;;;;;;17.97;9.97;;;;;;;-141.28;100.00;49796.38;5116018;28;20209;-76
2022/11/06 03:04:16;;;;;;;19.13;9.17;;;;;;;-141.28;100.00;49808.16;5115387;28;20226;-76
2022/11/06 03:06:46;;;;;;;17.03;8.33;;;;;;;-141.28;100.00;49790.50;5115532;28;20286;-76
2022/11/06 03:09:19;;;;;;;18.80;8.80;;;;;;;-141.28;100.00;49780.69;5115560;28;20246;-77
2022/11/06 03:11:51;;;;;;;13.67;8.23;;;;;;;-141.28;100.00;49761.06;5117156;28;20687;-75
2022/11/06 03:14:25;;;;;;;17.70;8.20;;;;;;;-141.28;100.00;49776.75;5116603;28;20202;-79
2022/11/06 03:16:57;;;;;;;17.13;7.73;;;;;;;-141.28;100.00;49749.28;5117270;28;20233;-76
2022/11/06 03:19:29;;;;;;;14.97;7.90;;;;;;;-141.28;100.00;49737.50;5116968;28;20232;-77
2022/11/06 03:22:02;;;;;;;20.83;8.63;;;;;;;-141.28;100.00;49772.81;5116003;28;20203;-76
2022/11/06 03:24:34;;;;;;;16.17;8.97;;;;;;;-141.28;100.00;49737.50;5114689;28;20303;-76
2022/11/06 03:27:08;;;;;;;15.23;8.10;;;;;;;-141.28;100.00;49764.97;5114698;28;20199;-76
2022/11/06 03:29:41;;;;;;;16.47;8.17;;;;;;;-141.28;100.00;49768.91;5115126;28;20202;-75
2022/11/06 03:32:15;;;;;;;17.53;9.73;;;;;;;-141.28;100.00;49717.88;5114882;28;20203;-75
2022/11/06 03:34:48;;;;;;;15.60;7.63;;;;;;;-141.28;100.00;49678.63;5114589;28;20209;-80
2022/11/06 03:37:19;;;;;;;17.10;7.50;;;;;;;-141.28;100.00;49690.41;5114301;28;20244;-75
2022/11/06 03:39:51;;;;;;;14.83;7.53;;;;;;;-141.28;100.00;49649.19;5115700;28;20662;-76
2022/11/06 03:42:23;;;;;;;16.90;7.83;;;;;;;-141.28;100.00;49647.22;5114855;28;20234;-78
2022/11/06 03:44:54;;;;;;;14.37;7.50;;;;;;;-141.28;100.00;49631.53;5115810;28;20227;-76
2022/11/06 03:47:38;;;;;;;13.30;7.87;;;;;;;-141.28;100.00;49660.97;5103711;28;20206;-77
2022/11/06 03:50:12;;;;;;;12.57;7.50;;;;;;;-141.28;100.00;49619.75;5107318;28;20248;-76
2022/11/06 03:52:43;;;;;;;13.23;7.57;;;;;;;-141.28;100.00;49606.03;5116205;28;20198;-79
2022/11/06 03:55:14;;;;;;;17.70;8.23;;;;;;;-141.28;100.00;49574.63;5114503;28;20259;-77
2022/11/06 03:57:48;;;;;;;13.07;7.13;;;;;;;-141.28;100.00;49551.06;5114166;28;20249;-76
2022/11/06 04:00:19;;;;;;;13.47;7.30;;;;;;;-141.28;100.00;49490.25;5114067;28;20195;-77
2022/11/06 04:02:50;;;;;;;12.90;7.60;;;;;;;-141.28;100.00;49427.44;5114190;28;20231;-78
2022/11/06 04:05:24;;;;;;;15.40;8.70;;;;;;;-141.28;100.00;49429.41;5114605;28;20226;-77
2022/11/06 04:16:18;;;;;;;22.73;11.30;;;;;;;-141.28;100.00;49407.84;5114491;28;20326;-75
2022/11/06 04:18:45;;;;;;;19.17;9.53;;;;;;;-141.28;100.00;49341.13;5116007;28;20207;-78
2022/11/06 04:21:24;;;;;;;16.87;8.70;;;;;;;-141.28;100.00;49323.44;5113975;28;20744;-75
2022/11/06 04:26:59;;;;;;;17.73;9.20;;;;;;;-141.28;100.00;49386.25;5114025;28;20722;-76
2022/11/06 04:29:37;;;;;;;18.10;8.80;;;;;;;-141.28;100.00;49345.03;5101783;28;20646;-78
2022/11/06 04:32:12;;;;;;;23.27;9.00;;;;;;;-141.28;100.00;49309.72;5100953;28;20214;-77
2022/11/06 04:34:45;;;;;;;15.27;8.77;;;;;;;-141.28;100.00;49309.72;5113671;28;20241;-79
2022/11/06 04:37:21;;;;;;;16.10;9.10;;;;;;;-141.28;100.00;49301.88;5113267;28;20664;-79
2022/11/06 04:39:55;;;;;;;18.23;9.33;;;;;;;-141.28;100.00;49294.03;5113105;28;20290;-75
2022/11/06 04:42:30;;;;;;;14.93;9.93;;;;;;;-141.28;100.00;49315.59;5112332;28;20206;-78
2022/11/06 04:45:03;;;;;;;14.40;9.27;;;;;;;-141.28;100.00;49305.78;5100175;28;20226;-76
2022/11/06 04:47:32;;;;;;;16.10;9.53;;;;;;;-141.28;100.00;49280.28;5113232;28;20199;-76
2022/11/06 04:50:02;;;;;;;18.50;10.87;;;;;;;-141.28;100.00;49282.25;5120802;28;20199;-75
2022/11/06 04:52:29;;;;;;;22.00;12.20;;;;;;;-141.28;100.00;49274.41;5122495;28;20202;-74
2022/11/06 04:54:58;;;;;;;20.47;11.10;;;;;;;-141.28;100.00;49274.41;5118774;28;20203;-76
2022/11/06 04:57:26;;;;;;;18.77;11.30;;;;;;;-141.28;100.00;49272.44;5119013;28;20258;-77
2022/11/06 04:59:55;;;;;;;16.20;10.27;;;;;;;-141.28;100.00;49254.78;5117957;28;20199;-76
2022/11/06 05:02:23;;;;;;;17.93;10.97;;;;;;;-141.28;100.00;49231.22;5117762;28;20218;-76
2022/11/06 05:04:51;;;;;;;17.77;11.03;;;;;;;-141.28;100.00;49258.69;5113080;28;20269;-76
2022/11/06 05:07:18;;;;;;;13.70;10.60;;;;;;;-141.28;100.00;49239.09;5113090;28;20198;-77
2022/11/06 05:09:45;;;;;;;17.53;9.93;;;;;;;-141.28;100.00;49264.59;5112938;28;20259;-77
2022/11/06 05:12:12;;;;;;;18.93;11.00;;;;;;;-141.28;100.00;49280.28;5103320;28;20294;-78
2022/11/06 05:14:39;;;;;;;18.53;11.33;;;;;;;-141.28;100.00;49301.88;5109815;28;20211;-78
2022/11/06 05:17:06;;;;;;;17.00;10.00;;;;;;;-141.28;100.00;49315.59;5112691;28;20238;-76
2022/11/06 05:19:33;;;;;;;20.87;9.60;;;;;;;-141.28;100.00;49323.44;5109712;28;20192;-76
2022/11/06 05:24:46;;;;;;;17.67;9.63;;;;;;;-141.28;100.00;49337.19;5112648;28;20755;-77
2022/11/06 05:27:13;;;;;;;16.23;9.57;;;;;;;-141.28;100.00;49321.50;5112710;28;20684;-78
2022/11/06 05:29:40;;;;;;;21.50;9.90;;;;;;;-141.28;100.00;49341.13;5112557;28;20222;-78
2022/11/06 05:32:07;;;;;;;16.00;10.10;;;;;;;-141.28;100.00;49378.41;5112440;28;20225;-78
2022/11/06 05:34:34;;;;;;;17.50;10.80;;;;;;;-141.28;100.00;49370.53;5102359;28;20202;-79
2022/11/06 05:37:03;;;;;;;20.00;10.33;;;;;;;-141.28;100.00;49348.97;5112382;28;20255;-75
2022/11/06 05:39:30;;;;;;;19.50;11.43;;;;;;;-141.28;100.00;49388.22;5112283;28;20260;-78
2022/11/06 05:41:57;;;;;;;19.63;10.47;;;;;;;-141.28;100.00;49411.75;5110936;28;20243;-78
2022/11/06 05:44:24;;;;;;;19.57;11.57;;;;;;;-141.28;100.00;49417.63;5111989;28;20199;-77
2022/11/06 05:46:51;;;;;;;21.77;10.57;;;;;;;-141.28;100.00;49431.38;5112323;28;20207;-77
2022/11/06 05:49:18;;;;;;;22.90;11.00;;;;;;;-141.28;100.00;49454.94;5111068;28;20199;-79
2022/11/06 05:51:46;;;;;;;22.43;12.23;;;;;;;-141.28;100.00;49486.31;5112275;28;20267;-76
2022/11/06 05:54:14;;;;;;;20.80;14.57;;;;;;;-141.28;100.00;49496.13;5111967;28;20575;-79
2022/11/06 05:56:42;;;;;;;38.30;22.07;;;;;;;-141.28;100.00;49498.09;5112487;28;20290;-78
2022/11/06 05:59:09;;;;;;;54.17;32.03;;;;;;;-141.28;100.00;49498.09;5111096;28;20263;-77
2022/11/06 06:01:36;;;;;;;58.13;34.97;;;;;;;-141.28;100.00;49521.63;5102177;28;20214;-76
2022/11/06 06:04:03;;;;;;;44.10;23.13;;;;;;;-141.28;100.00;49545.19;5122276;28;20974;-74
2022/11/06 06:06:31;;;;;;;35.00;23.80;;;;;;;-141.28;100.00;49533.41;5122576;28;20222;-75
2022/11/06 06:08:58;;;;;;;34.20;19.33;;;;;;;-141.28;100.00;49564.81;5113381;28;20271;-76
2022/11/06 06:11:27;;;;;;;31.70;21.37;;;;;;;-141.28;100.00;49572.66;5113040;28;20393;-78
2022/11/06 06:13:54;;;;;;;23.67;12.53;;;;;;;-141.28;100.00;49566.78;5112717;28;20195;-80
2022/11/06 06:16:21;;;;;;;24.60;12.73;;;;;;;-141.28;100.00;49609.94;5112009;28;20231;-77
2022/11/06 06:18:49;;;;;;;25.17;12.27;;;;;;;-141.28;100.00;49611.91;5111639;28;20202;-76
2022/11/06 06:21:17;;;;;;;45.40;32.13;;;;;;;-141.28;100.00;49615.84;5111980;28;20226;-80
2022/11/06 06:23:44;;;;;;;41.07;27.57;;;;;;;-141.28;100.00;49615.84;5111722;28;20199;-79
2022/11/06 06:26:11;;;;;;;35.93;19.00;;;;;;;-141.28;100.00;49619.75;5111872;28;20222;-79
2022/11/06 06:28:40;;;;;;;37.33;20.73;;;;;;;-141.28;100.00;49615.84;5111914;28;20222;-80
2022/11/06 06:31:08;;;;;;;27.83;17.37;;;;;;;-141.28;100.00;49604.06;5111793;28;20260;-77
2022/11/06 06:33:35;;;;;;;22.43;13.23;;;;;;;-141.28;100.00;49631.53;5111403;28;20195;-77
2022/11/06 06:36:04;;;;;;;16.07;11.93;;;;;;;-141.28;100.00;49619.75;5112173;28;20598;-79
2022/11/06 06:38:31;;;;;;;19.73;11.03;;;;;;;-141.28;100.00;49643.31;5110342;28;20673;-76
2022/11/06 06:41:01;;;;;;;19.50;10.63;;;;;;;-141.28;100.00;49655.09;5112154;28;20206;-76
2022/11/06 06:43:28;;;;;;;17.57;10.60;;;;;;;-141.28;100.00;49655.09;5110824;28;20564;-79
2022/11/06 06:45:59;;;;;;;21.80;11.43;;;;;;;-141.28;100.00;49596.22;5113034;28;20291;-78
2022/11/06 06:48:27;;;;;;;18.50;10.73;;;;;;;-141.28;100.00;49639.38;5099533;28;20638;-80
2022/11/06 06:50:56;;;;;;;25.90;13.03;;;;;;;-141.28;100.00;49651.16;5111266;28;20256;-80
2022/11/06 06:53:24;;;;;;;22.53;12.97;;;;;;;-141.28;100.00;49668.81;5113187;28;20203;-77
2022/11/06 06:55:51;;;;;;;27.47;13.23;;;;;;;-141.28;100.00;49666.84;5110430;28;20229;-76
2022/11/06 06:58:20;;;;;;;34.03;13.63;;;;;;;-141.28;100.00;49655.09;5111574;28;20272;-79
2022/11/06 07:00:47;;;;;;;35.30;13.10;;;;;;;-141.28;100.00;49655.09;5113451;28;20195;-76
2022/11/06 07:03:15;;;;;;;20.07;11.73;;;;;;;-141.28;100.00;49647.22;5115788;28;20202;-78
2022/11/06 07:05:42;;;;;;;28.97;12.90;;;;;;;-141.28;100.00;49631.53;5116203;28;20223;-75
2022/11/06 07:08:11;;;;;;;24.33;12.63;;;;;;;-141.28;100.00;49643.31;5115228;28;20578;-79
2022/11/06 07:10:39;;;;;;;20.43;12.50;;;;;;;-141.28;100.00;49660.97;5115304;28;20289;-78
2022/11/06 07:13:10;;;;;;;17.47;12.20;;;;;;;-141.28;100.00;49623.69;5114777;28;20206;-78
2022/11/06 07:15:37;;;;;;;25.37;13.43;;;;;;;-141.28;100.00;49619.75;5115264;28;20261;-77
2022/11/06 07:18:05;;;;;;;16.40;11.50;;;;;;;-141.28;100.00;49600.13;5114675;28;20248;-77
2022/11/06 07:20:35;;;;;;;27.17;12.00;;;;;;;-141.28;100.00;49592.28;5115007;28;20271;-78
2022/11/06 07:23:05;;;;;;;26.47;13.10;;;;;;;-141.28;100.00;49572.66;5115155;28;20198;-78
2022/11/06 07:25:33;;;;;;;25.30;11.77;;;;;;;-141.28;100.00;49617.78;5114334;28;20227;-77
2022/11/06 07:28:02;;;;;;;25.83;12.93;;;;;;;-141.28;100.00;49613.88;5114696;28;20669;-75
2022/11/06 07:30:29;;;;;;;17.67;12.47;;;;;;;-141.28;100.00;49586.41;5114120;28;20547;-76
2022/11/06 07:32:57;;;;;;;21.83;15.27;;;;;;;-141.28;100.00;49590.31;5114451;28;20203;-75
2022/11/06 07:35:23;;;;;;;22.70;14.07;;;;;;;-141.28;100.00;49566.78;5113647;28;20199;-78
2022/11/06 07:37:52;;;;;;;19.30;14.57;;;;;;;-141.28;100.00;49568.75;5114728;28;20199;-76
2022/11/06 07:40:19;;;;;;;20.50;12.43;;;;;;;-141.28;100.00;49564.81;5114598;28;20256;-77
2022/11/06 07:42:46;;;;;;;19.73;12.63;;;;;;;-141.28;100.00;49558.94;5112084;28;20267;-77
2022/11/06 07:45:14;;;;;;;21.50;12.60;;;;;;;-141.28;100.00;49521.63;5101424;28;20219;-79
2022/11/06 07:47:41;;;;;;;28.37;13.83;;;;;;;-141.28;100.00;49523.59;5114055;28;20677;-77
2022/11/06 07:50:08;;;;;;;20.83;13.20;;;;;;;-141.28;100.00;49502.03;5114541;28;20289;-76
2022/11/06 07:52:36;;;;;;;24.63;14.70;;;;;;;-141.28;100.00;49513.78;5114389;28;20199;-80
2022/11/06 07:55:06;;;;;;;22.77;14.57;;;;;;;-141.28;100.00;49498.09;5114206;28;20673;-77
2022/11/06 07:57:37;;;;;;;22.70;13.90;;;;;;;-141.28;100.00;49513.78;5113861;28;20215;-79
2022/11/06 08:00:05;;;;;;;23.33;13.87;;;;;;;-141.28;100.00;49505.94;5114414;28;20358;-76
2022/11/06 08:02:32;;;;;;;30.63;14.67;;;;;;;-141.28;100.00;49486.31;5113384;28;20199;-75
2022/11/06 08:04:59;;;;;;;22.03;13.43;;;;;;;-141.28;100.00;49496.13;5113788;28;20211;-77
2022/11/06 08:07:26;;;;;;;26.90;14.13;;;;;;;-141.28;100.00;49439.22;5113011;28;20198;-78
2022/11/06 08:09:53;;;;;;;28.17;13.77;;;;;;;-141.28;100.00;49484.34;5115615;28;20199;-77
2022/11/06 08:12:22;;;;;;;22.70;13.50;;;;;;;-141.28;100.00;49486.31;5112962;28;20199;-76
2022/11/06 08:14:48;;;;;;;21.83;15.10;;;;;;;-141.28;100.00;49502.03;5113594;28;20206;-76
2022/11/06 08:17:16;;;;;;;26.20;16.10;;;;;;;-141.28;100.00;49474.53;5099650;28;20697;-77
2022/11/06 08:19:43;;;;;;;26.67;15.77;;;;;;;-141.28;100.00;49472.59;5114829;28;20247;-76
2022/11/06 08:22:10;;;;;;;24.03;13.87;;;;;;;-141.28;100.00;49458.84;5112992;28;20203;-80
2022/11/06 08:24:37;;;;;;;25.03;15.27;;;;;;;-141.28;100.00;49447.06;5113468;28;20203;-76
2022/11/06 08:27:04;;;;;;;22.90;13.00;;;;;;;-141.28;100.00;49445.13;5113029;28;20728;-77
2022/11/06 08:29:33;;;;;;;22.03;13.37;;;;;;;-141.28;100.00;49423.53;5113425;28;20285;-77
2022/11/06 08:31:59;;;;;;;27.17;15.73;;;;;;;-141.28;100.00;49445.13;5113005;28;20207;-77
2022/11/06 08:34:27;;;;;;;22.07;10.77;;;;;;;-141.28;100.00;49439.22;5113370;28;20221;-77
2022/11/06 08:36:53;;;;;;;19.17;10.90;;;;;;;-141.28;100.00;49454.94;5113610;28;20628;-79
2022/11/06 08:39:20;;;;;;;20.83;14.17;;;;;;;-141.28;100.00;49478.47;5112981;28;20205;-77
2022/11/06 08:41:47;;;;;;;34.83;18.00;;;;;;;-141.28;100.00;49529.50;5111721;28;20214;-79
2022/11/06 08:44:14;;;;;;;26.03;16.20;;;;;;;-141.28;100.00;49521.63;5112812;28;20199;-77
2022/11/06 08:46:43;;;;;;;17.93;13.70;;;;;;;-141.28;100.00;49611.91;5113854;28;20233;-76
2022/11/06 08:49:11;;;;;;;21.60;14.60;;;;;;;-141.28;100.00;49647.22;5112966;28;20202;-80
2022/11/06 08:51:40;;;;;;;24.33;13.00;;;;;;;-141.28;100.00;49706.09;5112623;28;20199;-76
2022/11/06 08:54:07;;;;;;;21.90;14.43;;;;;;;-141.28;100.00;49745.34;5112801;28;20222;-77
2022/11/06 08:56:34;;;;;;;21.07;14.63;;;;;;;-141.28;100.00;49788.53;5112814;28;20753;-76
2022/11/06 08:59:01;;;;;;;21.13;14.10;;;;;;;-141.28;100.00;49857.22;5112819;28;20210;-77
2022/11/06 09:01:29;;;;;;;19.77;13.17;;;;;;;-141.28;100.00;49906.28;5112868;28;20199;-78
2022/11/06 09:03:58;;;;;;;25.17;15.93;;;;;;;-141.28;100.00;49984.78;5113065;28;20695;-76
2022/11/06 09:06:26;;;;;;;36.33;25.30;;;;;;;-141.28;100.00;50086.84;5112406;28;20258;-75
2022/11/06 09:08:54;;;;;;;47.53;28.63;;;;;;;-141.28;100.00;50220.28;5103278;28;20226;-77
2022/11/06 09:14:06;;;;;;;72.20;42.13;;;;;;;-141.28;100.00;50204.59;5111602;28;20210;-76
2022/11/06 09:16:33;;;;;;;27.07;20.17;;;;;;;-141.28;100.00;50216.38;5112061;28;20234;-76
2022/11/06 09:19:02;;;;;;;19.37;14.20;;;;;;;-141.28;100.00;50316.47;5112515;28;20618;-77
2022/11/06 09:21:29;;;;;;;14.97;11.67;;;;;;;-141.28;100.00;50396.94;5112164;28;20201;-76
2022/11/06 09:23:55;;;;;;;20.00;14.47;;;;;;;-141.28;100.00;50599.13;5112397;28;20198;-78
2022/11/06 09:26:24;;;;;;;18.20;12.00;;;;;;;-141.28;100.00;50703.16;5112042;28;20708;-78
2022/11/06 09:28:51;;;;;;;15.83;9.73;;;;;;;-141.28;100.00;50746.34;5115045;28;20251;-77
2022/11/06 09:31:17;;;;;;;15.23;10.37;;;;;;;-141.28;100.00;50801.31;5112097;28;20214;-76
2022/11/06 09:33:44;;;;;;;16.07;10.40;;;;;;;-141.28;100.00;50864.13;5112236;28;20203;-75
2022/11/06 09:36:13;;;;;;;13.20;10.27;;;;;;;-141.28;100.00;50907.31;5111989;28;20202;-78
2022/11/06 09:38:40;;;;;;;17.60;11.17;;;;;;;-141.28;100.00;50936.75;5112389;28;20596;-79
2022/11/06 09:41:23;;;;;;;15.07;9.80;;;;;;;-141.28;100.00;50875.91;5111579;28;20677;-77
2022/11/06 09:44:07;;;;;;;14.87;8.90;;;;;;;-141.28;100.00;50891.63;5101839;28;20255;-79
2022/11/06 09:46:40;;;;;;;16.67;10.77;;;;;;;-141.28;100.00;50701.19;5112232;28;20264;-79
2022/11/06 09:49:16;;;;;;;16.60;10.10;;;;;;;-141.28;100.00;50832.72;5112302;28;20203;-78
2022/11/06 09:51:52;;;;;;;12.33;8.53;;;;;;;-141.28;100.00;50824.88;5111970;28;20202;-80
2022/11/06 09:54:24;;;;;;;12.07;9.03;;;;;;;-141.28;100.00;50459.75;5111595;28;20202;-77
2022/11/06 09:56:55;;;;;;;12.37;8.93;;;;;;;-141.28;100.00;50846.47;5111884;28;20569;-78
2022/11/06 09:59:22;;;;;;;9.40;7.60;;;;;;;-141.28;100.00;50817.03;5111508;28;20217;-79
2022/11/06 10:01:55;;;;;;;11.53;7.97;;;;;;;-141.28;100.00;50870.03;5111996;28;20206;-78
2022/11/06 10:04:33;;;;;;;13.10;8.13;;;;;;;-141.28;100.00;50868.06;5111342;28;20713;-76
2022/11/06 10:07:01;;;;;;;13.57;8.97;;;;;;;-141.28;100.00;50848.44;5111700;28;20760;-78
2022/11/06 10:09:29;;;;;;;9.73;7.83;;;;;;;-141.28;100.00;50903.41;5111353;28;20229;-79
2022/11/06 10:12:12;;;;;;;12.00;7.50;;;;;;;-141.28;100.00;50926.94;5111656;28;20226;-78
2022/11/06 10:14:53;;;;;;;12.73;7.30;;;;;;;-141.28;100.00;50801.31;5111844;28;20203;-78
2022/11/06 10:17:42;;;;;;;11.47;7.63;;;;;;;-141.28;100.00;50822.91;5114456;28;20283;-77
2022/11/06 10:20:17;;;;;;;9.90;7.33;;;;;;;-141.28;100.00;50781.69;5112815;28;20202;-77
2022/11/06 10:22:54;;;;;;;8.87;7.37;;;;;;;-141.28;100.00;50773.81;5111622;28;20198;-78
2022/11/06 10:25:22;;;;;;;9.30;6.80;;;;;;;-141.28;100.00;50781.69;5111044;28;20669;-76
2022/11/06 10:28:01;;;;;;;6.73;5.50;;;;;;;-141.28;100.00;50754.19;5111490;28;20728;-79
2022/11/06 10:30:39;;;;;;;10.73;6.20;;;;;;;-141.28;100.00;50742.41;5098458;28;20198;-75
2022/11/06 10:33:23;;;;;;;8.57;6.07;;;;;;;-141.28;100.00;50724.75;5111272;28;20210;-77
2022/11/06 10:35:55;;;;;;;8.40;6.27;;;;;;;-141.28;100.00;50707.09;5114116;28;20203;-77
2022/11/06 10:38:27;;;;;;;5.87;5.13;;;;;;;-141.28;100.00;50718.88;5115356;28;20195;-76
2022/11/06 10:40:55;;;;;;;7.50;5.03;;;;;;;-141.28;100.00;50703.16;5115805;28;20207;-76
2022/11/06 10:43:30;;;;;;;6.53;5.10;;;;;;;-141.28;100.00;50750.28;5118432;28;20199;-75
2022/11/06 10:46:06;;;;;;;7.07;5.50;;;;;;;-141.28;100.00;50754.19;5122094;28;20202;-75
2022/11/06 10:48:38;;;;;;;11.27;7.00;;;;;;;-141.28;100.00;50795.41;5123022;28;20648;-80
2022/11/06 10:51:21;;;;;;;12.83;7.10;;;;;;;-141.28;100.00;50848.44;5117423;28;20210;-78
2022/11/06 10:54:00;;;;;;;12.00;7.60;;;;;;;-141.28;100.00;50783.66;5117861;28;20203;-76
2022/11/06 10:56:46;;;;;;;9.10;7.47;;;;;;;-141.28;100.00;50707.09;5116045;28;20256;-79
2022/11/06 10:59:18;;;;;;;11.10;6.53;;;;;;;-141.28;100.00;50614.81;5116230;28;20202;-80
2022/11/06 11:01:45;;;;;;;7.73;6.10;;;;;;;-141.28;100.00;50561.81;5115879;28;20307;-79
2022/11/06 11:04:13;;;;;;;10.73;6.27;;;;;;;-141.28;100.00;50446.03;5114828;28;20210;-76
2022/11/06 11:06:42;;;;;;;9.53;6.13;;;;;;;-141.28;100.00;50416.56;5114720;28;20272;-77
2022/11/06 11:09:31;;;;;;;8.13;6.73;;;;;;;-141.28;100.00;50287.03;5114319;28;20219;-77
2022/11/06 11:11:59;;;;;;;7.27;6.40;;;;;;;-141.28;100.00;50214.41;5115090;28;20601;-77
2022/11/06 11:14:28;;;;;;;7.87;6.27;;;;;;;-141.28;100.00;50196.75;5114434;28;20676;-77
2022/11/06 11:16:59;;;;;;;8.47;7.20;;;;;;;-141.28;100.00;50122.16;5114551;28;20602;-75
2022/11/06 11:19:34;;;;;;;11.80;7.97;;;;;;;-141.28;100.00;50120.19;5114891;28;20202;-77
2022/11/06 11:22:03;;;;;;;10.53;8.00;;;;;;;-141.28;100.00;50075.06;5114592;28;20260;-76
2022/11/06 11:24:32;;;;;;;12.70;9.07;;;;;;;-141.28;100.00;49843.47;5103519;28;20273;-75
2022/11/06 11:27:02;;;;;;;12.90;9.83;;;;;;;-141.28;100.00;50020.09;5112710;28;20613;-76
2022/11/06 11:29:32;;;;;;;15.37;10.13;;;;;;;-141.28;100.00;50024.03;5114924;28;20259;-78